Time;durP1;ratioP1;P1;durP2;ratioP2;P2;SDS_P1;SDS_P2;PMS_P1;PMS_P2;Temp;Humidity;BMP_temperature;BMP_pressure;BME280_temperature;BME280_humidity;BME280_pressure;Samples;Min_cycle;Max_cycle;Signal;HPM_P1;HPM_P2
2022/06/09 00:01:31;;;;;;;3.00;2.80;;;;;;;;;;5063714;28;24444;-48
2022/06/09 00:03:56;;;;;;;3.10;2.90;;;;;;;;;;5064996;28;24425;-48
2022/06/09 00:06:22;;;;;;;3.38;3.08;;;;;;;;;;5072054;28;24427;-48
2022/06/09 00:08:49;;;;;;;3.40;3.20;;;;;;;;;;5053799;28;24427;-48
2022/06/09 00:11:16;;;;;;;3.50;3.20;;;;;;;;;;5058767;28;25338;-48
2022/06/09 00:13:42;;;;;;;3.75;3.45;;;;;;;;;;5061212;28;25408;-48
2022/06/09 00:16:10;;;;;;;3.37;3.17;;;;;;;;;;5073234;28;24422;-47
2022/06/09 00:18:35;;;;;;;3.42;3.17;;;;;;;;;;5066330;28;24836;-48
2022/06/09 00:21:01;;;;;;;3.15;2.95;;;;;;;;;;5062213;28;25003;-48
2022/06/09 00:23:26;;;;;;;3.80;3.50;;;;;;;;;;5068965;28;24500;-48
2022/06/09 00:25:51;;;;;;;3.75;3.45;;;;;;;;;;5070569;28;24422;-48
2022/06/09 00:28:16;;;;;;;3.67;3.47;;;;;;;;;;5081066;28;24434;-48
2022/06/09 00:30:41;;;;;;;3.70;3.40;;;;;;;;;;5077976;28;24422;-48
2022/06/09 00:33:07;;;;;;;4.30;4.00;;;;;;;;;;5072502;28;24425;-48
2022/06/09 00:35:32;;;;;;;4.15;3.90;;;;;;;;;;5075823;28;24418;-48
2022/06/09 00:37:57;;;;;;;4.60;4.20;;;;;;;;;;5078908;28;24516;-48
2022/06/09 00:40:23;;;;;;;4.20;3.90;;;;;;;;;;5061298;28;24419;-48
2022/06/09 00:42:48;;;;;;;4.30;3.90;;;;;;;;;;5067952;28;24908;-47
2022/06/09 00:45:27;;;;;;;3.80;3.50;;;;;;;;;;5071254;28;24441;-48
2022/06/09 00:47:55;;;;;;;3.13;2.90;;;;;;;;;;5067509;28;24418;-47
2022/06/09 00:50:24;;;;;;;5.28;2.83;;;;;;;;;;5069765;28;24535;-48
2022/06/09 00:52:51;;;;;;;3.30;2.70;;;;;;;;;;5058656;28;24988;-48
2022/06/09 00:55:19;;;;;;;2.80;2.50;;;;;;;;;;5051882;28;24435;-48
2022/06/09 00:57:47;;;;;;;2.60;2.40;;;;;;;;;;5065477;28;24466;-48
2022/06/09 01:00:17;;;;;;;2.80;2.60;;;;;;;;;;5059250;28;24418;-48
2022/06/09 01:02:43;;;;;;;2.65;2.38;;;;;;;;;;5071795;28;24457;-48
2022/06/09 01:05:09;;;;;;;2.70;2.50;;;;;;;;;;5069054;28;24425;-48
2022/06/09 01:07:37;;;;;;;2.38;2.17;;;;;;;;;;5066559;28;24474;-48
2022/06/09 01:10:03;;;;;;;2.70;2.50;;;;;;;;;;5070417;28;24427;-48
2022/06/09 01:12:30;;;;;;;2.50;2.30;;;;;;;;;;5069794;28;25056;-47
2022/06/09 01:15:00;;;;;;;3.63;2.00;;;;;;;;;;5065073;28;24417;-49
2022/06/09 01:17:33;;;;;;;2.93;2.13;;;;;;;;;;5065340;28;25229;-47
2022/06/09 01:20:07;;;;;;;2.30;2.10;;;;;;;;;;5073717;28;24437;-48
2022/06/09 01:22:35;;;;;;;3.50;2.60;;;;;;;;;;5069474;28;24503;-48
2022/06/09 01:25:10;;;;;;;2.65;2.45;;;;;;;;;;5063593;28;24548;-47
2022/06/09 01:27:54;;;;;;;2.53;2.17;;;;;;;;;;5075679;28;24426;-48
2022/06/09 01:30:39;;;;;;;3.13;2.47;;;;;;;;;;5066211;28;24419;-48
2022/06/09 01:33:09;;;;;;;2.40;2.10;;;;;;;;;;5072587;28;24518;-47
2022/06/09 01:35:37;;;;;;;2.28;2.08;;;;;;;;;;5072752;28;24781;-47
2022/06/09 01:38:02;;;;;;;3.00;2.10;;;;;;;;;;5077349;28;24426;-48
2022/06/09 01:40:28;;;;;;;2.40;2.00;;;;;;;;;;5074725;28;24479;-48
2022/06/09 01:42:57;;;;;;;2.10;2.00;;;;;;;;;;5068951;28;24453;-47
2022/06/09 01:45:42;;;;;;;2.30;1.90;;;;;;;;;;5071778;28;24773;-47
2022/06/09 01:48:18;;;;;;;3.50;2.20;;;;;;;;;;5057145;28;24448;-48
2022/06/09 01:50:55;;;;;;;3.70;2.00;;;;;;;;;;5066332;28;24422;-48
2022/06/09 01:53:42;;;;;;;3.50;2.20;;;;;;;;;;5076313;28;24842;-48
2022/06/09 01:56:09;;;;;;;2.75;2.10;;;;;;;;;;5065776;28;24481;-48
2022/06/09 01:58:37;;;;;;;3.15;2.10;;;;;;;;;;5069283;28;24423;-48
2022/06/09 02:01:03;;;;;;;2.90;1.90;;;;;;;;;;5074458;28;24422;-47
2022/06/09 02:03:30;;;;;;;2.20;1.90;;;;;;;;;;5061054;28;24533;-47
2022/06/09 02:05:58;;;;;;;2.60;1.90;;;;;;;;;;5083682;28;24518;-47
2022/06/09 02:08:24;;;;;;;2.58;2.00;;;;;;;;;;5071059;28;24458;-48
2022/06/09 02:10:54;;;;;;;2.20;2.00;;;;;;;;;;5051607;28;24506;-48
2022/06/09 02:13:21;;;;;;;2.10;2.00;;;;;;;;;;5060182;28;24528;-48
2022/06/09 02:15:47;;;;;;;2.70;1.90;;;;;;;;;;5073936;28;24414;-47
2022/06/09 02:18:14;;;;;;;2.10;2.00;;;;;;;;;;5065984;28;24468;-47
2022/06/09 02:20:42;;;;;;;2.10;2.00;;;;;;;;;;5081883;28;24418;-47
2022/06/09 02:23:07;;;;;;;2.55;2.22;;;;;;;;;;5063172;28;24520;-48
2022/06/09 02:25:33;;;;;;;2.50;1.90;;;;;;;;;;5065624;28;24530;-48
2022/06/09 02:27:58;;;;;;;2.17;1.97;;;;;;;;;;5066609;28;24458;-48
2022/06/09 02:30:23;;;;;;;3.37;2.10;;;;;;;;;;5080589;28;24427;-48
2022/06/09 02:32:48;;;;;;;2.10;1.90;;;;;;;;;;5077442;28;24510;-55
2022/06/09 02:35:13;;;;;;;2.90;1.70;;;;;;;;;;5063747;28;24457;-47
2022/06/09 02:37:38;;;;;;;2.13;1.80;;;;;;;;;;5072168;28;25037;-48
2022/06/09 02:40:04;;;;;;;2.08;1.98;;;;;;;;;;5079005;28;24422;-47
2022/06/09 02:42:29;;;;;;;2.40;1.70;;;;;;;;;;5064173;28;24510;-48
2022/06/09 02:44:54;;;;;;;1.80;1.70;;;;;;;;;;5070802;28;24800;-48
2022/06/09 02:47:20;;;;;;;2.40;1.83;;;;;;;;;;5065159;28;25189;-48
2022/06/09 02:49:45;;;;;;;2.00;1.70;;;;;;;;;;5068435;28;24420;-48
2022/06/09 02:52:10;;;;;;;1.75;1.60;;;;;;;;;;5075578;28;24967;-48
2022/06/09 02:54:36;;;;;;;1.80;1.70;;;;;;;;;;5066105;28;24488;-49
2022/06/09 02:57:01;;;;;;;2.10;1.70;;;;;;;;;;5061749;28;24879;-48
2022/06/09 02:59:26;;;;;;;2.00;1.80;;;;;;;;;;5064871;28;24422;-47
2022/06/09 03:01:51;;;;;;;1.50;1.40;;;;;;;;;;5069558;28;24471;-47
2022/06/09 03:04:16;;;;;;;2.10;1.80;;;;;;;;;;5077584;28;24410;-47
2022/06/09 03:06:42;;;;;;;1.92;1.60;;;;;;;;;;5077737;28;24437;-48
2022/06/09 03:09:07;;;;;;;1.90;1.60;;;;;;;;;;5065232;28;24850;-47
2022/06/09 03:11:32;;;;;;;1.90;1.70;;;;;;;;;;5054939;28;24427;-48
2022/06/09 03:13:57;;;;;;;1.50;1.40;;;;;;;;;;5082909;28;24429;-47
2022/06/09 03:16:22;;;;;;;1.70;1.60;;;;;;;;;;5069007;28;24475;-48
2022/06/09 03:18:47;;;;;;;2.00;1.80;;;;;;;;;;5064514;28;24505;-48
2022/06/09 03:21:13;;;;;;;2.03;1.80;;;;;;;;;;5063271;28;24421;-48
2022/06/09 03:23:38;;;;;;;1.80;1.70;;;;;;;;;;5073373;28;24491;-48
2022/06/09 03:26:03;;;;;;;2.23;1.70;;;;;;;;;;5063941;28;25062;-47
2022/06/09 03:28:29;;;;;;;2.67;1.60;;;;;;;;;;5068717;28;24876;-48
2022/06/09 03:30:55;;;;;;;1.80;1.70;;;;;;;;;;5061613;28;24423;-48
2022/06/09 03:33:20;;;;;;;1.88;1.60;;;;;;;;;;5074342;28;25044;-48
2022/06/09 03:35:45;;;;;;;1.80;1.50;;;;;;;;;;5072841;28;24481;-47
2022/06/09 03:38:10;;;;;;;2.38;1.80;;;;;;;;;;5076322;28;24566;-47
2022/06/09 03:40:35;;;;;;;1.63;1.53;;;;;;;;;;5060487;28;25209;-48
2022/06/09 03:43:04;;;;;;;3.30;1.80;;;;;;;;;;5073377;28;24426;-48
2022/06/09 03:45:30;;;;;;;2.30;1.67;;;;;;;;;;5061683;28;25042;-48
2022/06/09 03:47:55;;;;;;;2.30;1.42;;;;;;;;;;5056772;28;24430;-47
2022/06/09 03:50:22;;;;;;;1.80;1.70;;;;;;;;;;5069881;28;24516;-49
2022/06/09 03:52:48;;;;;;;1.30;1.20;;;;;;;;;;5067859;28;24418;-47
2022/06/09 03:55:13;;;;;;;2.25;1.50;;;;;;;;;;5061823;28;24435;-48
2022/06/09 03:57:38;;;;;;;1.37;1.27;;;;;;;;;;5068605;28;24430;-48
2022/06/09 04:00:04;;;;;;;1.90;1.60;;;;;;;;;;5063863;28;24445;-48
2022/06/09 04:02:30;;;;;;;1.70;1.50;;;;;;;;;;5065582;28;24431;-48
2022/06/09 04:04:55;;;;;;;2.43;1.50;;;;;;;;;;5066278;28;24463;-48
2022/06/09 04:07:20;;;;;;;2.40;1.70;;;;;;;;;;5077955;28;24414;-47
2022/06/09 04:09:46;;;;;;;2.03;1.50;;;;;;;;;;5072105;28;24426;-47
2022/06/09 04:12:11;;;;;;;2.00;1.80;;;;;;;;;;5074035;28;24423;-47
2022/06/09 04:14:36;;;;;;;2.50;1.80;;;;;;;;;;5065919;28;24418;-47
2022/06/09 04:17:02;;;;;;;1.80;1.70;;;;;;;;;;5066367;28;24816;-48
2022/06/09 04:19:27;;;;;;;1.73;1.60;;;;;;;;;;5072567;28;24469;-47
2022/06/09 04:21:52;;;;;;;3.30;1.70;;;;;;;;;;5064772;28;24411;-48
2022/06/09 04:24:18;;;;;;;1.67;1.58;;;;;;;;;;5072483;28;25048;-48
2022/06/09 04:26:44;;;;;;;1.90;1.60;;;;;;;;;;5060267;28;24436;-49
2022/06/09 04:29:13;;;;;;;3.00;1.80;;;;;;;;;;5065095;28;24502;-47
2022/06/09 04:31:40;;;;;;;1.60;1.50;;;;;;;;;;5057479;28;24427;-48
2022/06/09 04:34:05;;;;;;;1.70;1.60;;;;;;;;;;5058495;28;24453;-48
2022/06/09 04:36:30;;;;;;;1.60;1.50;;;;;;;;;;5053601;28;24432;-48
2022/06/09 04:38:56;;;;;;;2.53;1.60;;;;;;;;;;5057955;28;24425;-48
2022/06/09 04:41:21;;;;;;;2.50;1.60;;;;;;;;;;5062585;28;25282;-48
2022/06/09 04:43:47;;;;;;;3.53;1.70;;;;;;;;;;5061707;28;24435;-48
2022/06/09 04:46:13;;;;;;;1.50;1.40;;;;;;;;;;5061980;28;24987;-47
2022/06/09 04:48:39;;;;;;;2.65;1.55;;;;;;;;;;5059798;28;24983;-47
2022/06/09 04:51:05;;;;;;;3.07;1.80;;;;;;;;;;5062423;28;24444;-48
2022/06/09 04:53:30;;;;;;;3.50;1.60;;;;;;;;;;5061995;28;24995;-48
2022/06/09 04:55:55;;;;;;;2.67;1.60;;;;;;;;;;5055826;28;24516;-48
2022/06/09 04:58:20;;;;;;;1.70;1.40;;;;;;;;;;5058260;28;24534;-48
2022/06/09 05:00:45;;;;;;;1.70;1.60;;;;;;;;;;5065572;28;24479;-48
2022/06/09 05:03:13;;;;;;;3.92;1.70;;;;;;;;;;5066867;28;24538;-48
2022/06/09 05:05:40;;;;;;;1.90;1.60;;;;;;;;;;5079564;28;24472;-55
2022/06/09 05:08:06;;;;;;;2.13;1.42;;;;;;;;;;5061780;28;25054;-48
2022/06/09 05:10:31;;;;;;;1.60;1.50;;;;;;;;;;5059312;28;24430;-48
2022/06/09 05:12:57;;;;;;;1.85;1.38;;;;;;;;;;5074375;28;24421;-48
2022/06/09 05:15:23;;;;;;;1.67;1.40;;;;;;;;;;5080284;28;24418;-48
2022/06/09 05:17:48;;;;;;;2.70;1.60;;;;;;;;;;5066331;28;24488;-48
2022/06/09 05:20:15;;;;;;;1.80;1.50;;;;;;;;;;5054958;28;24422;-48
2022/06/09 05:22:40;;;;;;;2.10;1.90;;;;;;;;;;5078908;28;24854;-48
2022/06/09 05:25:06;;;;;;;1.77;1.53;;;;;;;;;;5061686;28;24422;-48
2022/06/09 05:27:32;;;;;;;2.40;1.40;;;;;;;;;;5087292;28;24421;-48
2022/06/09 05:29:57;;;;;;;2.00;1.50;;;;;;;;;;5087017;28;24423;-48
2022/06/09 05:32:22;;;;;;;2.37;1.70;;;;;;;;;;5070663;28;24401;-48
2022/06/09 05:34:48;;;;;;;1.80;1.70;;;;;;;;;;5070396;28;24387;-47
2022/06/09 05:37:13;;;;;;;1.83;1.50;;;;;;;;;;5070329;28;24541;-48
2022/06/09 05:45:06;;;;;;;2.72;1.65;;;;;;;;;;5070012;28;24496;-47
2022/06/09 05:47:31;;;;;;;1.40;1.30;;;;;;;;;;5065959;28;24426;-48
2022/06/09 05:49:57;;;;;;;1.40;1.30;;;;;;;;;;5089529;28;24418;-49
2022/06/09 05:52:23;;;;;;;1.90;1.60;;;;;;;;;;5071772;28;24850;-48
2022/06/09 05:54:49;;;;;;;2.07;1.70;;;;;;;;;;5082418;28;24426;-48
2022/06/09 05:57:14;;;;;;;1.70;1.47;;;;;;;;;;5085439;28;25053;-48
2022/06/09 05:59:40;;;;;;;1.70;1.60;;;;;;;;;;5080603;28;24413;-48
2022/06/09 06:02:06;;;;;;;1.60;1.50;;;;;;;;;;5079966;28;24453;-49
2022/06/09 06:04:32;;;;;;;1.30;1.20;;;;;;;;;;5087278;28;25031;-48
2022/06/09 06:06:57;;;;;;;2.13;1.50;;;;;;;;;;5084044;28;24506;-48
2022/06/09 06:09:22;;;;;;;2.27;1.60;;;;;;;;;;5078694;28;24414;-48
2022/06/09 06:11:48;;;;;;;3.50;1.40;;;;;;;;;;5070539;28;24991;-48
2022/06/09 06:14:13;;;;;;;2.22;1.38;;;;;;;;;;5083641;28;24544;-48
2022/06/09 06:16:39;;;;;;;2.00;1.40;;;;;;;;;;5070587;28;24824;-48
2022/06/09 06:19:05;;;;;;;2.00;1.20;;;;;;;;;;5071378;28;24508;-48
2022/06/09 06:21:30;;;;;;;1.20;1.10;;;;;;;;;;5068584;28;24995;-48
2022/06/09 06:23:55;;;;;;;2.70;1.60;;;;;;;;;;5086578;28;24509;-48
2022/06/09 06:26:21;;;;;;;1.50;1.40;;;;;;;;;;5088623;28;24414;-48
2022/06/09 06:28:46;;;;;;;1.88;1.60;;;;;;;;;;5075808;28;24541;-49
2022/06/09 06:31:12;;;;;;;1.77;1.37;;;;;;;;;;5079903;28;24521;-48
2022/06/09 06:33:37;;;;;;;4.03;1.57;;;;;;;;;;5078334;28;24457;-49
2022/06/09 06:36:02;;;;;;;1.50;1.40;;;;;;;;;;5064304;28;24444;-48
2022/06/09 06:38:27;;;;;;;2.20;1.60;;;;;;;;;;5069450;28;24936;-48
2022/06/09 06:40:54;;;;;;;2.37;1.40;;;;;;;;;;5068483;28;24498;-49
2022/06/09 06:43:19;;;;;;;2.60;1.80;;;;;;;;;;5075017;28;24434;-48
2022/06/09 06:45:45;;;;;;;2.00;1.50;;;;;;;;;;5082164;28;24443;-48
2022/06/09 06:48:10;;;;;;;1.73;1.40;;;;;;;;;;5078983;28;24989;-48
2022/06/09 06:50:35;;;;;;;1.70;1.60;;;;;;;;;;5088942;28;24406;-49
2022/06/09 06:53:01;;;;;;;2.50;1.40;;;;;;;;;;5074286;28;24496;-48
2022/06/09 06:55:26;;;;;;;2.20;1.40;;;;;;;;;;5069318;28;24935;-48
2022/06/09 06:57:52;;;;;;;1.50;1.40;;;;;;;;;;5068384;28;24430;-48
2022/06/09 07:00:19;;;;;;;3.00;1.60;;;;;;;;;;5069005;28;24383;-48
2022/06/09 07:02:45;;;;;;;1.63;1.40;;;;;;;;;;5068519;28;24395;-48
2022/06/09 07:05:10;;;;;;;1.40;1.30;;;;;;;;;;5067291;28;24472;-49
2022/06/09 07:07:35;;;;;;;2.00;1.40;;;;;;;;;;5058667;28;24999;-48
2022/06/09 07:10:01;;;;;;;1.50;1.40;;;;;;;;;;5045847;28;24414;-48
2022/06/09 07:12:26;;;;;;;2.10;1.90;;;;;;;;;;5047960;28;24459;-48
2022/06/09 07:14:51;;;;;;;1.95;1.77;;;;;;;;;;5046090;28;24441;-48
2022/06/09 07:17:17;;;;;;;1.47;1.37;;;;;;;;;;5052309;28;24881;-48
2022/06/09 07:19:42;;;;;;;2.00;1.50;;;;;;;;;;5066828;28;24371;-49
2022/06/09 07:22:07;;;;;;;1.67;1.20;;;;;;;;;;5058809;28;24422;-49
2022/06/09 07:24:32;;;;;;;3.00;1.60;;;;;;;;;;5046891;28;24494;-49
2022/06/09 07:26:58;;;;;;;1.50;1.40;;;;;;;;;;5048780;28;24435;-47
2022/06/09 07:29:25;;;;;;;1.50;1.30;;;;;;;;;;5046349;28;25003;-48
2022/06/09 07:31:50;;;;;;;2.05;1.70;;;;;;;;;;5052488;28;24418;-48
2022/06/09 07:34:15;;;;;;;1.70;1.60;;;;;;;;;;5066657;28;24395;-48
2022/06/09 07:36:40;;;;;;;2.13;1.30;;;;;;;;;;5059511;28;24510;-49
2022/06/09 07:39:06;;;;;;;1.40;1.30;;;;;;;;;;5048323;28;24806;-48
2022/06/09 07:41:31;;;;;;;1.70;1.60;;;;;;;;;;5057186;28;24415;-48
2022/06/09 07:43:57;;;;;;;1.70;1.60;;;;;;;;;;5064034;28;24534;-48
2022/06/09 07:46:22;;;;;;;1.33;1.23;;;;;;;;;;5060578;28;24502;-48
2022/06/09 07:48:47;;;;;;;2.40;1.70;;;;;;;;;;5044790;28;24485;-48
2022/06/09 07:51:13;;;;;;;2.00;1.60;;;;;;;;;;5047107;28;24933;-48
2022/06/09 07:53:38;;;;;;;2.20;1.70;;;;;;;;;;5046345;28;24388;-48
2022/06/09 07:56:03;;;;;;;1.90;1.70;;;;;;;;;;5056414;28;24415;-48
2022/06/09 07:58:29;;;;;;;1.80;1.70;;;;;;;;;;5045635;28;24442;-49
2022/06/09 08:00:54;;;;;;;1.60;1.50;;;;;;;;;;5045944;28;24977;-48
2022/06/09 08:03:20;;;;;;;1.60;1.50;;;;;;;;;;5046144;28;24426;-48
2022/06/09 08:05:45;;;;;;;1.87;1.77;;;;;;;;;;5054124;28;24445;-48
2022/06/09 08:08:11;;;;;;;1.77;1.63;;;;;;;;;;5066073;28;24403;-48
2022/06/09 08:10:36;;;;;;;1.80;1.70;;;;;;;;;;5067512;28;24769;-48
2022/06/09 08:13:02;;;;;;;1.80;1.70;;;;;;;;;;5067304;28;24474;-49
2022/06/09 08:15:28;;;;;;;1.77;1.67;;;;;;;;;;5064047;28;24438;-49
2022/06/09 08:17:54;;;;;;;2.00;1.80;;;;;;;;;;5064517;28;24418;-49
2022/06/09 08:20:20;;;;;;;3.10;2.10;;;;;;;;;;5058148;28;25031;-49
2022/06/09 08:22:45;;;;;;;1.90;1.80;;;;;;;;;;5045589;28;24993;-48
2022/06/09 08:25:12;;;;;;;2.13;1.88;;;;;;;;;;5046529;28;24522;-48
2022/06/09 08:27:39;;;;;;;1.60;1.50;;;;;;;;;;5060785;28;24419;-48
2022/06/09 08:30:05;;;;;;;2.17;2.00;;;;;;;;;;5059321;28;24995;-47
2022/06/09 08:32:30;;;;;;;3.72;1.90;;;;;;;;;;5047115;28;24818;-48
2022/06/09 08:34:56;;;;;;;2.00;1.70;;;;;;;;;;5046048;28;24976;-47
2022/06/09 08:37:21;;;;;;;1.85;1.75;;;;;;;;;;5063709;28;24921;-48
2022/06/09 08:39:46;;;;;;;1.70;1.60;;;;;;;;;;5067008;28;24406;-48
2022/06/09 08:42:20;;;;;;;2.30;1.90;;;;;;;;;;5064377;28;24445;-49
2022/06/09 08:45:11;;;;;;;1.90;1.70;;;;;;;;;;5066680;28;24450;-48
2022/06/09 08:47:48;;;;;;;2.10;2.00;;;;;;;;;;5061889;28;24423;-47
2022/06/09 08:50:16;;;;;;;2.20;2.10;;;;;;;;;;5066825;28;24440;-48
2022/06/09 08:52:50;;;;;;;2.47;2.20;;;;;;;;;;5066650;28;24397;-48
2022/06/09 08:55:35;;;;;;;1.92;1.83;;;;;;;;;;5066774;28;24437;-48
2022/06/09 08:58:03;;;;;;;2.10;1.90;;;;;;;;;;5055007;28;24812;-48
2022/06/09 09:00:30;;;;;;;2.10;1.90;;;;;;;;;;5065946;28;24383;-48
2022/06/09 09:03:00;;;;;;;1.95;1.85;;;;;;;;;;5065763;28;24430;-48
2022/06/09 09:05:30;;;;;;;2.30;2.10;;;;;;;;;;5066472;28;24470;-48
2022/06/09 09:07:56;;;;;;;2.13;2.03;;;;;;;;;;5065294;28;24976;-49
2022/06/09 09:10:41;;;;;;;2.28;2.08;;;;;;;;;;5066849;28;24399;-48
2022/06/09 09:13:07;;;;;;;2.47;2.28;;;;;;;;;;5052168;28;24492;-49
2022/06/09 09:15:45;;;;;;;2.50;2.40;;;;;;;;;;5066681;28;24451;-48
2022/06/09 09:18:10;;;;;;;2.50;2.40;;;;;;;;;;5065418;28;24526;-48
2022/06/09 09:20:38;;;;;;;2.30;2.20;;;;;;;;;;5066503;28;24546;-48
2022/06/09 09:23:17;;;;;;;2.40;2.30;;;;;;;;;;5066134;28;24414;-48
2022/06/09 09:25:51;;;;;;;3.40;3.20;;;;;;;;;;5066326;28;24632;-48
2022/06/09 09:28:30;;;;;;;3.40;3.20;;;;;;;;;;5064006;28;24454;-48
2022/06/09 09:30:59;;;;;;;3.50;3.20;;;;;;;;;;5066122;28;24851;-48
2022/06/09 09:33:25;;;;;;;3.30;3.10;;;;;;;;;;5066681;28;24406;-48
2022/06/09 09:35:53;;;;;;;3.65;3.45;;;;;;;;;;5066364;28;24407;-48
2022/06/09 09:38:19;;;;;;;3.30;3.10;;;;;;;;;;5063899;28;24491;-48
2022/06/09 09:40:46;;;;;;;3.60;3.40;;;;;;;;;;5065259;28;24944;-48
2022/06/09 09:43:13;;;;;;;3.80;3.50;;;;;;;;;;5065955;28;24410;-48
2022/06/09 09:45:43;;;;;;;3.67;3.38;;;;;;;;;;5066440;28;24437;-49
2022/06/09 09:48:17;;;;;;;3.72;3.50;;;;;;;;;;5064823;28;24444;-48
2022/06/09 09:50:50;;;;;;;3.60;3.40;;;;;;;;;;5066248;28;24398;-48
2022/06/09 09:53:18;;;;;;;3.60;3.40;;;;;;;;;;5065875;28;24461;-48
2022/06/09 09:55:50;;;;;;;3.60;3.40;;;;;;;;;;5066136;28;24406;-48
2022/06/09 09:58:38;;;;;;;4.60;4.30;;;;;;;;;;5065222;28;24426;-48
2022/06/09 10:01:06;;;;;;;3.88;3.67;;;;;;;;;;5063837;28;24415;-48
2022/06/09 10:09:18;;;;;;;4.00;3.80;;;;;;;;;;5065280;28;24993;-48
2022/06/09 10:11:54;;;;;;;4.70;4.40;;;;;;;;;;5066219;28;24390;-49
2022/06/09 10:14:36;;;;;;;5.13;4.80;;;;;;;;;;5069381;28;24963;-48
2022/06/09 10:17:02;;;;;;;5.05;4.75;;;;;;;;;;5069696;28;25006;-49
2022/06/09 10:19:30;;;;;;;4.70;4.40;;;;;;;;;;5067402;28;24498;-49
2022/06/09 10:21:56;;;;;;;5.25;4.85;;;;;;;;;;5068508;28;24840;-48
2022/06/09 10:24:24;;;;;;;5.00;4.60;;;;;;;;;;5069359;28;24477;-49
2022/06/09 10:26:54;;;;;;;6.20;5.70;;;;;;;;;;5069507;28;24391;-47
2022/06/09 10:29:26;;;;;;;4.90;4.50;;;;;;;;;;5068511;28;24386;-48
2022/06/09 10:31:51;;;;;;;5.30;4.90;;;;;;;;;;5068658;28;24410;-47
2022/06/09 10:34:23;;;;;;;4.53;4.22;;;;;;;;;;5069340;28;24399;-48
2022/06/09 10:36:52;;;;;;;4.50;4.20;;;;;;;;;;5056075;28;24480;-48
2022/06/09 10:39:22;;;;;;;4.97;4.60;;;;;;;;;;5065443;28;24397;-48
2022/06/09 10:41:51;;;;;;;4.60;4.30;;;;;;;;;;5067911;28;24411;-47
2022/06/09 10:44:26;;;;;;;4.70;4.40;;;;;;;;;;5067892;28;24437;-48
2022/06/09 10:55:27;;;;;;;4.60;4.30;;;;;;;;;;5049216;28;24481;-48
2022/06/09 10:58:11;;;;;;;4.20;3.70;;;;;;;;;;5048528;28;24458;-48
2022/06/09 11:00:37;;;;;;;4.60;4.30;;;;;;;;;;5048923;28;24396;-48
2022/06/09 11:03:10;;;;;;;4.53;4.22;;;;;;;;;;5048625;28;24430;-48
2022/06/09 11:05:45;;;;;;;4.40;4.10;;;;;;;;;;5048787;28;24392;-48
2022/06/09 11:08:21;;;;;;;4.78;4.43;;;;;;;;;;5048605;28;24715;-47
2022/06/09 11:11:09;;;;;;;4.55;4.15;;;;;;;;;;5048625;28;24414;-48
2022/06/09 11:13:53;;;;;;;4.70;4.40;;;;;;;;;;5043016;28;24522;-47
2022/06/09 11:16:25;;;;;;;5.30;4.90;;;;;;;;;;5048751;28;25004;-47
2022/06/09 11:19:05;;;;;;;5.15;4.75;;;;;;;;;;5048481;28;25044;-48
2022/06/09 11:21:37;;;;;;;5.18;4.80;;;;;;;;;;5048567;28;24395;-48
2022/06/09 11:24:02;;;;;;;5.70;5.30;;;;;;;;;;5047182;28;24457;-49
2022/06/09 11:26:27;;;;;;;6.00;5.60;;;;;;;;;;5068057;28;25057;-49
2022/06/09 11:29:01;;;;;;;6.30;5.80;;;;;;;;;;5068153;28;24466;-48
2022/06/09 11:31:43;;;;;;;7.10;6.50;;;;;;;;;;5068163;28;24406;-47
2022/06/09 11:34:11;;;;;;;6.10;5.70;;;;;;;;;;5068508;28;24387;-48
2022/06/09 11:36:55;;;;;;;6.40;5.90;;;;;;;;;;5067220;28;24777;-49
2022/06/09 11:39:39;;;;;;;6.78;6.28;;;;;;;;;;5068133;28;24468;-48
2022/06/09 11:42:29;;;;;;;6.00;5.60;;;;;;;;;;5067930;28;24939;-49
2022/06/09 11:44:55;;;;;;;5.30;5.00;;;;;;;;;;5057844;28;24523;-47
2022/06/09 11:47:24;;;;;;;6.00;5.40;;;;;;;;;;5066463;28;24764;-46
2022/06/09 11:49:52;;;;;;;7.00;6.40;;;;;;;;;;5068085;28;24415;-46
2022/06/09 11:52:22;;;;;;;6.70;6.20;;;;;;;;;;5067425;28;24399;-47
2022/06/09 11:54:54;;;;;;;7.00;6.30;;;;;;;;;;5067724;28;24762;-47
2022/06/09 11:57:19;;;;;;;5.78;5.28;;;;;;;;;;5064964;28;24437;-47
2022/06/09 12:00:01;;;;;;;4.65;4.30;;;;;;;;;;5068015;28;24387;-47
2022/06/09 12:02:35;;;;;;;5.13;4.72;;;;;;;;;;5067305;28;24925;-47
2022/06/09 12:05:03;;;;;;;4.80;4.50;;;;;;;;;;5067459;28;24936;-47
2022/06/09 12:07:36;;;;;;;6.10;5.70;;;;;;;;;;5066002;28;25088;-46
2022/06/09 12:10:14;;;;;;;5.90;5.40;;;;;;;;;;5067581;28;24537;-48
2022/06/09 12:12:40;;;;;;;5.10;4.70;;;;;;;;;;5067351;28;24399;-47
2022/06/09 12:15:16;;;;;;;4.45;4.13;;;;;;;;;;5067434;28;24391;-46
2022/06/09 12:17:56;;;;;;;5.05;4.75;;;;;;;;;;5065573;28;24793;-46
2022/06/09 12:20:40;;;;;;;5.20;4.80;;;;;;;;;;5069199;28;25092;-47
2022/06/09 12:23:24;;;;;;;4.50;4.15;;;;;;;;;;5055331;28;24407;-47
2022/06/09 12:26:08;;;;;;;4.93;4.40;;;;;;;;;;5068137;28;24513;-46
2022/06/09 12:28:44;;;;;;;4.30;4.00;;;;;;;;;;5070752;28;25039;-46
2022/06/09 12:31:14;;;;;;;4.85;4.45;;;;;;;;;;5067035;28;24468;-47
2022/06/09 12:33:44;;;;;;;4.40;4.10;;;;;;;;;;5067856;28;24800;-47
2022/06/09 12:36:12;;;;;;;3.90;3.60;;;;;;;;;;5061575;28;24509;-47
2022/06/09 12:38:55;;;;;;;4.25;3.85;;;;;;;;;;5064592;28;24429;-47
2022/06/09 12:41:33;;;;;;;3.90;3.60;;;;;;;;;;5070212;28;24485;-47
2022/06/09 12:44:17;;;;;;;4.20;3.90;;;;;;;;;;5067016;28;24475;-48
2022/06/09 12:46:42;;;;;;;3.40;3.20;;;;;;;;;;5068647;28;24418;-48
2022/06/09 12:49:20;;;;;;;4.07;3.78;;;;;;;;;;5066909;28;25040;-47
2022/06/09 12:51:46;;;;;;;3.90;3.60;;;;;;;;;;5066406;28;24784;-47
2022/06/09 12:54:18;;;;;;;4.70;4.30;;;;;;;;;;5063717;28;24430;-47
2022/06/09 12:56:45;;;;;;;4.63;3.70;;;;;;;;;;5066435;28;24399;-48
2022/06/09 12:59:19;;;;;;;4.20;3.90;;;;;;;;;;5066457;28;24883;-48
2022/06/09 13:01:52;;;;;;;3.90;3.60;;;;;;;;;;5066596;28;24389;-48
2022/06/09 13:04:18;;;;;;;4.70;4.20;;;;;;;;;;5066465;28;25097;-47
2022/06/09 13:06:47;;;;;;;4.20;3.90;;;;;;;;;;5064812;28;24449;-47
2022/06/09 13:09:18;;;;;;;3.70;3.40;;;;;;;;;;5065588;28;24423;-47
2022/06/09 13:14:28;;;;;;;4.30;3.90;;;;;;;;;;5066715;28;24927;-47
2022/06/09 13:16:55;;;;;;;5.07;4.60;;;;;;;;;;5065443;28;24498;-47
2022/06/09 13:19:23;;;;;;;4.38;4.07;;;;;;;;;;5063268;28;24824;-47
2022/06/09 13:21:48;;;;;;;4.40;4.00;;;;;;;;;;5063972;28;25065;-48
2022/06/09 13:24:24;;;;;;;4.10;3.80;;;;;;;;;;5066222;28;24399;-47
2022/06/09 13:26:50;;;;;;;4.03;3.73;;;;;;;;;;5064759;28;24445;-47
2022/06/09 13:29:21;;;;;;;4.63;4.22;;;;;;;;;;5063645;28;24824;-47
2022/06/09 13:31:46;;;;;;;4.18;3.78;;;;;;;;;;5064710;28;24457;-46
2022/06/09 13:34:11;;;;;;;4.50;4.10;;;;;;;;;;5064901;28;24457;-46
2022/06/09 13:36:37;;;;;;;4.63;4.22;;;;;;;;;;5066455;28;24425;-46
2022/06/09 13:39:20;;;;;;;4.50;4.10;;;;;;;;;;5060857;28;24419;-46
2022/06/09 13:41:46;;;;;;;4.70;4.30;;;;;;;;;;5062639;28;25360;-47
2022/06/09 13:44:16;;;;;;;4.50;4.10;;;;;;;;;;5064652;28;24435;-47
2022/06/09 13:47:07;;;;;;;3.80;3.50;;;;;;;;;;5065378;28;24511;-47
2022/06/09 13:49:39;;;;;;;4.20;3.80;;;;;;;;;;5062563;28;24427;-47
2022/06/09 13:52:05;;;;;;;5.88;3.90;;;;;;;;;;5068749;28;24426;-47
2022/06/09 13:54:37;;;;;;;4.60;4.20;;;;;;;;;;5068291;28;24427;-47
2022/06/09 13:57:05;;;;;;;4.30;3.90;;;;;;;;;;5067806;28;24812;-48
2022/06/09 13:59:30;;;;;;;4.28;3.90;;;;;;;;;;5072493;28;25031;-47
2022/06/09 14:01:55;;;;;;;4.00;3.70;;;;;;;;;;5069860;28;24407;-48
2022/06/09 14:04:47;;;;;;;4.60;4.20;;;;;;;;;;5068853;28;24934;-48
2022/06/09 14:07:21;;;;;;;4.13;3.83;;;;;;;;;;5064834;28;24793;-48
2022/06/09 14:09:47;;;;;;;4.68;4.28;;;;;;;;;;5049387;28;24481;-47
2022/06/09 14:12:12;;;;;;;4.47;4.07;;;;;;;;;;5048924;28;24399;-48
2022/06/09 14:14:37;;;;;;;3.80;3.50;;;;;;;;;;5057932;28;24533;-48
2022/06/09 14:17:03;;;;;;;3.97;3.67;;;;;;;;;;5069452;28;24414;-48
2022/06/09 14:19:28;;;;;;;3.70;3.40;;;;;;;;;;5069474;28;24532;-47
2022/06/09 14:21:53;;;;;;;4.38;3.97;;;;;;;;;;5069226;28;24974;-48
2022/06/09 14:24:20;;;;;;;4.10;3.80;;;;;;;;;;5067810;28;24417;-48
2022/06/09 14:26:47;;;;;;;5.00;4.50;;;;;;;;;;5069023;28;24426;-47
2022/06/09 14:29:14;;;;;;;4.20;3.80;;;;;;;;;;5068962;28;24582;-47
2022/06/09 14:31:39;;;;;;;5.32;4.82;;;;;;;;;;5069342;28;24391;-48
2022/06/09 14:34:05;;;;;;;4.73;4.33;;;;;;;;;;5067753;28;24417;-48
2022/06/09 14:36:30;;;;;;;4.32;3.92;;;;;;;;;;5066154;28;24414;-47
2022/06/09 14:38:56;;;;;;;4.00;3.70;;;;;;;;;;5068409;28;24849;-47
2022/06/09 14:41:22;;;;;;;5.18;4.68;;;;;;;;;;5068678;28;24807;-48
2022/06/09 14:43:47;;;;;;;5.13;4.63;;;;;;;;;;5067897;28;25016;-48
2022/06/09 14:46:22;;;;;;;4.50;4.10;;;;;;;;;;5063037;28;24510;-48
2022/06/09 14:48:47;;;;;;;4.65;4.25;;;;;;;;;;5061472;28;24505;-49
2022/06/09 14:51:13;;;;;;;5.07;4.00;;;;;;;;;;5068442;28;24497;-46
2022/06/09 14:53:41;;;;;;;4.90;4.50;;;;;;;;;;5068686;28;24403;-50
2022/06/09 14:56:06;;;;;;;4.50;4.10;;;;;;;;;;5071011;28;24427;-46
2022/06/09 14:58:31;;;;;;;5.60;4.70;;;;;;;;;;5066810;28;24522;-47
2022/06/09 15:01:00;;;;;;;4.40;4.00;;;;;;;;;;5063099;28;24415;-46
2022/06/09 15:03:25;;;;;;;5.10;4.28;;;;;;;;;;5072929;28;24427;-47
2022/06/09 15:05:51;;;;;;;4.57;4.17;;;;;;;;;;5069788;28;24464;-46
2022/06/09 15:08:17;;;;;;;5.50;4.80;;;;;;;;;;5073380;28;24520;-46
2022/06/09 15:10:45;;;;;;;4.70;3.00;;;;;;;;;;5067148;28;24526;-46
2022/06/09 15:13:11;;;;;;;3.17;2.58;;;;;;;;;;5072465;28;24437;-46